Time;durP1;ratioP1;P1;durP2;ratioP2;P2;SDS_P1;SDS_P2;PMS_P1;PMS_P2;Temp;Humidity;BMP_temperature;BMP_pressure;BME280_temperature;BME280_humidity;BME280_pressure;Samples;Min_cycle;Max_cycle;Signal;HPM_P1;HPM_P2
2021/10/22 00:01:00;;;;;;;;;;;17.40;99.90;;;;;;6153167;23;19904;-81
2021/10/22 00:03:25;;;;;;;;;;;17.40;99.90;;;;;;6152902;23;19901;-81
2021/10/22 00:05:51;;;;;;;;;;;17.40;99.90;;;;;;6147500;23;19962;-81
2021/10/22 00:08:17;;;;;;;;;;;17.50;99.90;;;;;;6144701;23;19981;-80
2021/10/22 00:10:43;;;;;;;;;;;17.40;99.90;;;;;;6143911;23;19905;-80
2021/10/22 00:13:09;;;;;;;;;;;17.40;99.90;;;;;;6144056;23;19912;-81
2021/10/22 00:15:35;;;;;;;;;;;17.50;99.90;;;;;;6145114;23;20298;-80
2021/10/22 00:18:01;;;;;;;;;;;17.50;99.90;;;;;;6143672;23;19921;-80
2021/10/22 00:20:26;;;;;;;;;;;17.50;99.90;;;;;;6145212;23;19905;-80
2021/10/22 00:22:52;;;;;;;;;;;17.50;99.90;;;;;;6144803;23;19908;-80
2021/10/22 00:25:19;;;;;;;;;;;17.50;99.90;;;;;;6145858;23;19909;-81
2021/10/22 00:27:45;;;;;;;;;;;17.50;99.90;;;;;;6145647;23;19901;-83
2021/10/22 00:30:11;;;;;;;;;;;17.50;99.90;;;;;;6119479;23;19912;-81
2021/10/22 00:32:37;;;;;;;;;;;17.50;99.90;;;;;;6145625;23;19920;-81
2021/10/22 00:35:03;;;;;;;;;;;17.60;99.90;;;;;;6145052;23;19905;-80
2021/10/22 00:37:28;;;;;;;;;;;17.50;99.90;;;;;;6148410;23;20333;-80
2021/10/22 00:39:54;;;;;;;;;;;17.60;99.90;;;;;;6152551;23;19973;-80
2021/10/22 00:42:21;;;;;;;;;;;17.50;99.90;;;;;;6125953;23;19984;-79
2021/10/22 00:44:48;;;;;;;;;;;17.50;99.90;;;;;;6146682;23;19920;-80
2021/10/22 00:47:14;;;;;;;;;;;17.50;99.90;;;;;;6144382;23;19931;-80
2021/10/22 00:49:40;;;;;;;;;;;17.50;99.90;;;;;;6118457;23;19909;-80
2021/10/22 00:52:05;;;;;;;;;;;17.60;99.90;;;;;;6118110;23;19905;-80
2021/10/22 00:54:31;;;;;;;;;;;17.60;99.90;;;;;;6117836;23;19905;-80
2021/10/22 00:56:57;;;;;;;;;;;17.70;99.90;;;;;;6143689;23;19904;-80
2021/10/22 00:59:22;;;;;;;;;;;17.60;99.90;;;;;;6143942;23;19905;-81
2021/10/22 01:01:48;;;;;;;;;;;17.60;99.90;;;;;;6143817;23;19916;-82
2021/10/22 01:04:14;;;;;;;;;;;17.60;99.90;;;;;;6143306;23;19905;-80
2021/10/22 01:06:41;;;;;;;;;;;17.50;99.90;;;;;;6117513;23;19916;-80
2021/10/22 01:09:08;;;;;;;;;;;17.50;99.90;;;;;;6142080;23;20090;-80
2021/10/22 01:11:34;;;;;;;;;;;17.50;99.90;;;;;;6141027;23;19909;-80
2021/10/22 01:14:01;;;;;;;;;;;17.50;99.90;;;;;;6141077;23;20007;-81
2021/10/22 01:16:27;;;;;;;;;;;17.50;99.90;;;;;;6116311;23;19915;-80
2021/10/22 01:18:52;;;;;;;;;;;17.50;99.90;;;;;;6141798;23;19904;-80
2021/10/22 01:21:18;;;;;;;;;;;17.50;99.90;;;;;;6141242;23;20249;-80
2021/10/22 01:23:44;;;;;;;;;;;17.50;99.90;;;;;;6140087;23;20245;-80
2021/10/22 01:26:09;;;;;;;;;;;17.50;99.90;;;;;;6140100;23;19905;-80
2021/10/22 01:28:35;;;;;;;;;;;17.50;99.90;;;;;;6141885;23;19909;-81
2021/10/22 01:31:01;;;;;;;;;;;17.50;99.90;;;;;;6140030;23;20305;-80
2021/10/22 01:33:27;;;;;;;;;;;17.50;99.90;;;;;;6139391;23;19916;-80
2021/10/22 01:35:53;;;;;;;;;;;17.50;99.90;;;;;;6138892;23;19917;-80
2021/10/22 01:38:23;;;;;;;;;;;17.50;99.90;;;;;;6138179;23;19932;-80
2021/10/22 01:40:53;;;;;;;;;;;17.50;99.90;;;;;;6111307;23;19916;-80
2021/10/22 01:43:19;;;;;;;;;;;17.50;99.90;;;;;;6137661;23;19905;-80
2021/10/22 01:45:45;;;;;;;;;;;17.50;99.90;;;;;;6136966;23;19911;-80
2021/10/22 01:48:11;;;;;;;;;;;17.60;99.90;;;;;;6133390;23;19909;-80
2021/10/22 01:50:37;;;;;;;;;;;17.50;99.90;;;;;;6139295;23;19916;-80
2021/10/22 01:53:03;;;;;;;;;;;17.50;99.90;;;;;;6139879;23;19972;-81
2021/10/22 01:55:28;;;;;;;;;;;17.50;99.90;;;;;;6139640;23;19963;-80
2021/10/22 01:57:54;;;;;;;;;;;17.60;99.90;;;;;;6137123;23;19905;-80
2021/10/22 02:00:20;;;;;;;;;;;17.50;99.90;;;;;;6140901;23;19905;-80
2021/10/22 02:02:46;;;;;;;;;;;17.50;99.90;;;;;;6141797;23;19952;-80
2021/10/22 02:05:12;;;;;;;;;;;17.50;99.90;;;;;;6141335;23;20537;-83
2021/10/22 02:07:37;;;;;;;;;;;17.50;99.90;;;;;;6138638;23;19957;-80
2021/10/22 02:10:04;;;;;;;;;;;17.50;99.90;;;;;;6140652;23;19957;-81
2021/10/22 02:12:30;;;;;;;;;;;17.40;99.90;;;;;;6139284;23;19911;-80
2021/10/22 02:14:55;;;;;;;;;;;17.30;99.90;;;;;;6138921;23;19906;-80
2021/10/22 02:17:21;;;;;;;;;;;17.30;99.90;;;;;;6138522;23;19937;-80
2021/10/22 02:19:47;;;;;;;;;;;17.20;99.90;;;;;;6139541;23;19909;-80
2021/10/22 02:22:14;;;;;;;;;;;17.20;99.90;;;;;;6140433;23;19953;-81
2021/10/22 02:24:39;;;;;;;;;;;17.30;99.90;;;;;;6139663;23;19909;-80
2021/10/22 02:27:05;;;;;;;;;;;17.20;99.90;;;;;;6137722;23;19905;-81
2021/10/22 02:29:31;;;;;;;;;;;17.20;99.90;;;;;;6136888;23;19948;-80
2021/10/22 02:31:57;;;;;;;;;;;17.20;99.90;;;;;;6137176;23;19976;-80
2021/10/22 02:34:22;;;;;;;;;;;17.20;99.90;;;;;;6137114;23;19909;-80
2021/10/22 02:36:49;;;;;;;;;;;17.20;99.90;;;;;;6113930;23;19969;-80
2021/10/22 02:39:15;;;;;;;;;;;17.20;99.90;;;;;;6145230;23;19905;-80
2021/10/22 02:41:41;;;;;;;;;;;17.20;99.90;;;;;;6145603;23;19916;-80
2021/10/22 02:44:07;;;;;;;;;;;17.20;99.90;;;;;;6145506;23;19965;-80
2021/10/22 02:46:33;;;;;;;;;;;17.20;99.90;;;;;;6145525;23;19917;-80
2021/10/22 02:48:59;;;;;;;;;;;17.20;99.90;;;;;;6145832;23;19909;-80
2021/10/22 02:51:24;;;;;;;;;;;17.20;99.90;;;;;;6145152;23;19916;-80
2021/10/22 02:53:50;;;;;;;;;;;17.20;99.90;;;;;;6145651;23;19931;-80
2021/10/22 02:56:16;;;;;;;;;;;17.10;99.90;;;;;;6144560;23;19957;-80
2021/10/22 02:58:42;;;;;;;;;;;17.10;99.90;;;;;;6143606;23;19909;-80
2021/10/22 03:01:08;;;;;;;;;;;17.10;99.90;;;;;;6142516;23;19948;-80
2021/10/22 03:03:34;;;;;;;;;;;17.10;99.90;;;;;;6142474;23;19912;-80
2021/10/22 03:06:00;;;;;;;;;;;17.10;99.90;;;;;;6142697;23;19980;-81
2021/10/22 03:08:25;;;;;;;;;;;17.10;99.90;;;;;;6145057;23;19931;-81
2021/10/22 03:10:51;;;;;;;;;;;17.10;99.90;;;;;;6144263;23;19912;-80
2021/10/22 03:13:17;;;;;;;;;;;17.10;99.90;;;;;;6144596;23;19915;-81
2021/10/22 03:15:42;;;;;;;;;;;17.10;99.90;;;;;;6145486;23;19912;-80
2021/10/22 03:18:08;;;;;;;;;;;17.10;99.90;;;;;;6144519;23;19905;-82
2021/10/22 03:20:35;;;;;;;;;;;17.10;99.90;;;;;;6119133;23;19905;-80
2021/10/22 03:23:01;;;;;;;;;;;17.10;99.90;;;;;;6143259;23;19932;-80
2021/10/22 03:25:26;;;;;;;;;;;17.10;99.90;;;;;;6143647;23;19916;-81
2021/10/22 03:27:53;;;;;;;;;;;17.10;99.90;;;;;;6144575;23;19916;-81
2021/10/22 03:30:19;;;;;;;;;;;17.10;99.90;;;;;;6144235;23;19904;-80
2021/10/22 03:32:44;;;;;;;;;;;17.10;99.90;;;;;;6118258;23;19911;-80
2021/10/22 03:35:10;;;;;;;;;;;17.10;99.90;;;;;;6145296;23;19905;-80
2021/10/22 03:37:36;;;;;;;;;;;17.10;99.90;;;;;;6143288;23;19925;-80
2021/10/22 03:40:02;;;;;;;;;;;17.10;99.90;;;;;;6144546;23;19905;-81
2021/10/22 03:42:29;;;;;;;;;;;17.00;99.90;;;;;;6144005;23;19905;-81
2021/10/22 03:44:55;;;;;;;;;;;17.10;99.90;;;;;;6143135;23;19905;-80
2021/10/22 03:47:21;;;;;;;;;;;17.10;99.90;;;;;;6143043;23;19905;-82
2021/10/22 03:49:46;;;;;;;;;;;17.10;99.90;;;;;;6143675;23;19940;-82
2021/10/22 03:52:12;;;;;;;;;;;17.10;99.90;;;;;;6144121;23;19905;-81
2021/10/22 03:54:38;;;;;;;;;;;17.20;99.90;;;;;;6144546;23;19916;-80
2021/10/22 03:57:04;;;;;;;;;;;17.20;99.90;;;;;;6143771;23;19905;-80
2021/10/22 03:59:30;;;;;;;;;;;17.30;99.90;;;;;;6144898;23;19909;-80
2021/10/22 04:01:55;;;;;;;;;;;17.30;99.90;;;;;;6148034;23;20106;-80
2021/10/22 04:04:27;;;;;;;;;;;17.30;99.90;;;;;;6145128;23;19912;-80
2021/10/22 04:06:53;;;;;;;;;;;17.30;99.90;;;;;;6138633;23;19911;-80
2021/10/22 04:09:20;;;;;;;;;;;17.30;99.90;;;;;;6129953;23;19952;-80
2021/10/22 04:11:45;;;;;;;;;;;17.30;99.90;;;;;;6128812;23;20249;-80
2021/10/22 04:14:11;;;;;;;;;;;17.30;99.90;;;;;;6128025;23;19912;-80
2021/10/22 04:16:37;;;;;;;;;;;17.20;99.90;;;;;;6126824;23;19909;-80
2021/10/22 04:19:03;;;;;;;;;;;17.30;99.90;;;;;;6125742;23;19912;-80
2021/10/22 04:21:29;;;;;;;;;;;17.10;99.90;;;;;;6136007;23;19905;-80
2021/10/22 04:23:54;;;;;;;;;;;17.10;99.90;;;;;;6142155;23;19905;-80
2021/10/22 04:26:20;;;;;;;;;;;17.10;99.90;;;;;;6143471;23;19905;-80
2021/10/22 04:28:46;;;;;;;;;;;17.20;99.90;;;;;;6142874;23;19912;-80
2021/10/22 04:31:11;;;;;;;;;;;17.20;99.90;;;;;;6143138;23;19925;-79
2021/10/22 04:33:38;;;;;;;;;;;17.20;99.90;;;;;;6143529;23;19909;-80
2021/10/22 04:36:07;;;;;;;;;;;17.10;99.90;;;;;;6142641;23;20319;-80
2021/10/22 04:41:17;;;;;;;;;;;17.10;99.90;;;;;;6141298;23;19920;-79
2021/10/22 04:43:43;;;;;;;;;;;17.10;99.90;;;;;;6141087;23;19924;-79
2021/10/22 04:46:09;;;;;;;;;;;17.00;99.90;;;;;;6140999;23;19948;-80
2021/10/22 04:48:35;;;;;;;;;;;16.90;99.90;;;;;;6140034;23;19909;-80
2021/10/22 04:51:00;;;;;;;;;;;17.00;99.90;;;;;;6138333;23;19905;-79
2021/10/22 04:53:26;;;;;;;;;;;17.00;99.90;;;;;;6139624;23;20318;-81
2021/10/22 04:55:53;;;;;;;;;;;17.00;99.90;;;;;;6141601;23;19979;-80
2021/10/22 04:58:18;;;;;;;;;;;17.00;99.90;;;;;;6115217;23;19905;-80
2021/10/22 05:00:44;;;;;;;;;;;17.00;99.90;;;;;;6142129;23;19955;-80
2021/10/22 05:03:10;;;;;;;;;;;16.90;99.90;;;;;;6141476;23;19905;-81
2021/10/22 05:05:35;;;;;;;;;;;16.90;99.90;;;;;;6143499;23;19915;-80
2021/10/22 05:08:01;;;;;;;;;;;16.90;99.90;;;;;;6146784;23;20337;-80
2021/10/22 05:10:27;;;;;;;;;;;16.70;99.90;;;;;;6147674;23;19904;-80
2021/10/22 05:12:52;;;;;;;;;;;16.60;99.90;;;;;;6146823;23;19905;-79
2021/10/22 05:15:18;;;;;;;;;;;16.60;99.90;;;;;;6147418;23;19905;-80
2021/10/22 05:17:44;;;;;;;;;;;16.50;99.90;;;;;;6142652;23;19909;-81
2021/10/22 05:20:12;;;;;;;;;;;16.40;99.90;;;;;;6144417;23;19912;-80
2021/10/22 05:22:38;;;;;;;;;;;16.30;99.90;;;;;;6143577;23;19909;-80
2021/10/22 05:25:05;;;;;;;;;;;16.40;99.90;;;;;;6148942;23;19905;-79
2021/10/22 05:27:30;;;;;;;;;;;16.50;99.90;;;;;;6149302;23;19905;-79
2021/10/22 05:29:56;;;;;;;;;;;16.60;99.90;;;;;;6149119;23;19893;-79
2021/10/22 05:32:22;;;;;;;;;;;16.70;99.90;;;;;;6149755;23;19913;-80
2021/10/22 05:34:47;;;;;;;;;;;16.70;99.90;;;;;;6145456;23;20330;-80
2021/10/22 05:37:13;;;;;;;;;;;16.70;99.90;;;;;;6128129;23;20388;-79
2021/10/22 05:39:39;;;;;;;;;;;16.70;99.90;;;;;;6102913;23;19905;-80
2021/10/22 05:42:05;;;;;;;;;;;16.70;99.90;;;;;;6129972;23;19905;-80
2021/10/22 05:44:30;;;;;;;;;;;16.60;99.90;;;;;;6130524;23;19960;-80
2021/10/22 05:46:57;;;;;;;;;;;16.50;99.90;;;;;;6131505;23;19905;-80
2021/10/22 05:49:23;;;;;;;;;;;16.50;99.90;;;;;;6140778;23;19909;-80
2021/10/22 05:51:50;;;;;;;;;;;16.50;99.90;;;;;;6142540;23;19909;-80
2021/10/22 05:54:15;;;;;;;;;;;16.60;99.90;;;;;;6142128;23;19905;-80
2021/10/22 05:56:41;;;;;;;;;;;16.60;99.90;;;;;;6142642;23;20230;-80
2021/10/22 05:59:07;;;;;;;;;;;16.50;99.90;;;;;;6140671;23;20398;-80
2021/10/22 06:01:33;;;;;;;;;;;16.50;99.90;;;;;;6140327;23;19905;-80
2021/10/22 06:03:59;;;;;;;;;;;16.40;99.90;;;;;;6140850;23;19905;-80
2021/10/22 06:06:25;;;;;;;;;;;16.40;99.90;;;;;;6139389;23;19935;-79
2021/10/22 06:08:51;;;;;;;;;;;16.40;99.90;;;;;;6140345;23;19909;-80
2021/10/22 06:11:17;;;;;;;;;;;16.30;99.90;;;;;;6141122;23;19916;-80
2021/10/22 06:13:43;;;;;;;;;;;16.30;99.90;;;;;;6113460;23;19968;-80
2021/10/22 06:16:10;;;;;;;;;;;16.30;99.90;;;;;;6139889;23;20060;-81
2021/10/22 06:18:44;;;;;;;;;;;16.30;99.90;;;;;;6141113;23;20053;-80
2021/10/22 06:21:18;;;;;;;;;;;16.40;99.90;;;;;;6141819;23;19912;-79
2021/10/22 06:24:02;;;;;;;;;;;16.40;99.90;;;;;;6142090;23;19980;-80
2021/10/22 06:26:31;;;;;;;;;;;16.40;99.90;;;;;;6141781;23;20329;-79
2021/10/22 06:28:57;;;;;;;;;;;16.40;99.90;;;;;;6115116;23;20102;-80
2021/10/22 06:31:23;;;;;;;;;;;16.40;99.90;;;;;;6132610;23;19912;-80
2021/10/22 06:33:48;;;;;;;;;;;16.50;99.90;;;;;;6130443;23;19913;-79
2021/10/22 06:36:14;;;;;;;;;;;16.50;99.90;;;;;;6138086;23;19920;-79
2021/10/22 06:38:40;;;;;;;;;;;16.50;99.90;;;;;;6136863;23;19905;-79
2021/10/22 06:41:08;;;;;;;;;;;16.50;99.90;;;;;;6136178;23;19940;-80
2021/10/22 06:43:34;;;;;;;;;;;16.50;99.90;;;;;;6139497;23;19936;-80
2021/10/22 06:45:59;;;;;;;;;;;16.60;99.90;;;;;;6140418;23;19949;-79
2021/10/22 06:48:25;;;;;;;;;;;16.70;99.90;;;;;;6139576;23;19909;-79
2021/10/22 06:50:52;;;;;;;;;;;16.80;99.90;;;;;;6138066;23;19909;-80
2021/10/22 06:53:17;;;;;;;;;;;16.80;99.90;;;;;;6138965;23;19909;-80
2021/10/22 06:55:43;;;;;;;;;;;16.80;99.90;;;;;;6139560;23;19913;-79
2021/10/22 06:58:09;;;;;;;;;;;16.90;99.90;;;;;;6138851;23;19905;-80
2021/10/22 07:00:36;;;;;;;;;;;17.00;99.90;;;;;;6139669;23;19951;-80
2021/10/22 07:03:02;;;;;;;;;;;17.00;99.90;;;;;;6135267;23;20286;-73
2021/10/22 07:05:51;;;;;;;;;;;17.00;99.90;;;;;;6126241;23;20257;-73
2021/10/22 07:08:17;;;;;;;;;;;17.00;99.90;;;;;;6125676;23;19944;-82
2021/10/22 07:10:43;;;;;;;;;;;17.10;99.90;;;;;;6125267;23;19909;-72
2021/10/22 07:13:09;;;;;;;;;;;17.20;99.90;;;;;;6124675;23;19905;-77
2021/10/22 07:15:35;;;;;;;;;;;17.20;99.90;;;;;;6126096;23;19908;-73
2021/10/22 07:18:01;;;;;;;;;;;17.30;99.90;;;;;;6126116;23;19952;-75
2021/10/22 07:20:27;;;;;;;;;;;17.40;99.90;;;;;;6124605;23;19909;-73
2021/10/22 07:22:55;;;;;;;;;;;17.50;99.90;;;;;;6101080;23;20347;-73
2021/10/22 07:25:22;;;;;;;;;;;17.50;99.90;;;;;;6127964;23;19932;-73
2021/10/22 07:27:48;;;;;;;;;;;17.60;99.90;;;;;;6128072;23;20333;-73
2021/10/22 07:30:15;;;;;;;;;;;17.70;99.90;;;;;;6102528;23;19905;-74
2021/10/22 07:32:41;;;;;;;;;;;17.70;99.90;;;;;;6129198;23;19912;-73
2021/10/22 07:35:08;;;;;;;;;;;18.00;99.90;;;;;;6129978;23;19928;-73
2021/10/22 07:37:33;;;;;;;;;;;18.20;99.90;;;;;;6128511;23;20348;-72
2021/10/22 07:39:59;;;;;;;;;;;18.30;99.90;;;;;;6133438;23;19905;-72
2021/10/22 07:42:25;;;;;;;;;;;18.40;99.90;;;;;;6134771;23;19977;-71
2021/10/22 07:44:54;;;;;;;;;;;18.40;99.90;;;;;;6134591;23;20322;-72
2021/10/22 07:47:21;;;;;;;;;;;18.40;99.90;;;;;;6135295;23;19905;-72
2021/10/22 07:49:49;;;;;;;;;;;18.30;99.90;;;;;;6135927;23;19936;-72
2021/10/22 07:52:19;;;;;;;;;;;18.20;99.90;;;;;;6136857;23;19913;-72
2021/10/22 07:54:45;;;;;;;;;;;18.30;99.90;;;;;;6136617;23;19952;-72
2021/10/22 07:57:12;;;;;;;;;;;18.30;99.90;;;;;;6135753;23;19905;-72
2021/10/22 07:59:38;;;;;;;;;;;18.30;99.90;;;;;;6111164;23;19972;-71
2021/10/22 08:02:05;;;;;;;;;;;18.30;99.90;;;;;;6132367;23;19980;-71
2021/10/22 08:04:31;;;;;;;;;;;18.40;99.90;;;;;;6127990;23;19909;-72
2021/10/22 08:06:56;;;;;;;;;;;18.40;99.90;;;;;;6127143;23;20166;-74
2021/10/22 08:09:22;;;;;;;;;;;18.40;99.90;;;;;;6127860;23;19909;-75
2021/10/22 08:11:48;;;;;;;;;;;18.40;99.90;;;;;;6126078;23;19937;-71
2021/10/22 08:14:14;;;;;;;;;;;18.50;99.90;;;;;;6127968;23;19912;-70
2021/10/22 08:16:40;;;;;;;;;;;18.60;99.90;;;;;;6128422;23;19912;-71
2021/10/22 08:19:05;;;;;;;;;;;18.60;99.90;;;;;;6127844;23;19906;-71
2021/10/22 08:21:56;;;;;;;;;;;18.70;99.90;;;;;;6127919;23;19905;-73
2021/10/22 08:24:20;;;;;;;;;;;18.70;99.90;;;;;;6127042;23;19905;-72
2021/10/22 08:26:45;;;;;;;;;;;18.70;99.90;;;;;;6127405;23;19985;-72
2021/10/22 08:29:11;;;;;;;;;;;18.80;99.90;;;;;;6127927;23;19909;-71
2021/10/22 08:31:37;;;;;;;;;;;18.90;99.90;;;;;;6128408;23;19912;-73
2021/10/22 08:34:03;;;;;;;;;;;18.90;99.90;;;;;;6101358;23;20370;-71
2021/10/22 08:36:28;;;;;;;;;;;19.10;99.90;;;;;;6126965;23;19913;-71
2021/10/22 08:38:54;;;;;;;;;;;19.20;99.90;;;;;;6127001;23;19932;-71
2021/10/22 08:41:22;;;;;;;;;;;19.30;99.90;;;;;;6128476;23;19984;-71
2021/10/22 08:43:49;;;;;;;;;;;19.40;99.90;;;;;;6100732;23;20241;-72
2021/10/22 08:46:17;;;;;;;;;;;19.50;99.90;;;;;;6126782;23;19905;-72
2021/10/22 08:48:43;;;;;;;;;;;19.80;99.90;;;;;;6124972;23;20349;-73
2021/10/22 08:51:09;;;;;;;;;;;20.00;99.90;;;;;;6127456;23;19905;-74
2021/10/22 08:53:36;;;;;;;;;;;20.10;99.90;;;;;;6125403;23;19944;-75
2021/10/22 08:56:03;;;;;;;;;;;20.30;99.90;;;;;;6124988;23;19943;-74
2021/10/22 08:58:31;;;;;;;;;;;20.30;99.90;;;;;;6126048;23;19905;-74
2021/10/22 09:00:57;;;;;;;;;;;20.40;99.90;;;;;;6125467;23;20928;-75
2021/10/22 09:03:23;;;;;;;;;;;20.50;99.90;;;;;;6126618;23;19945;-74
2021/10/22 09:05:58;;;;;;;;;;;20.60;99.90;;;;;;6126574;23;19956;-73
2021/10/22 09:08:34;;;;;;;;;;;20.60;99.90;;;;;;6126304;23;20298;-73
2021/10/22 09:11:17;;;;;;;;;;;20.60;99.90;;;;;;6126172;23;20305;-74
2021/10/22 09:13:43;;;;;;;;;;;20.70;99.90;;;;;;6100066;23;19965;-75
2021/10/22 09:16:20;;;;;;;;;;;20.70;99.90;;;;;;6126463;23;19905;-73
2021/10/22 09:18:46;;;;;;;;;;;20.80;99.90;;;;;;6125275;23;19915;-74
2021/10/22 09:21:12;;;;;;;;;;;20.70;99.90;;;;;;6125746;23;19933;-74
2021/10/22 09:23:40;;;;;;;;;;;20.80;99.90;;;;;;6126300;23;19909;-74
2021/10/22 09:26:15;;;;;;;;;;;20.90;99.90;;;;;;6126508;23;19905;-75
2021/10/22 09:28:41;;;;;;;;;;;20.90;99.90;;;;;;6126051;23;19913;-74
2021/10/22 09:31:11;;;;;;;;;;;21.00;99.90;;;;;;6126552;23;19987;-74
2021/10/22 09:34:00;;;;;;;;;;;21.00;99.90;;;;;;6127015;23;20302;-74
2021/10/22 09:36:42;;;;;;;;;;;21.00;99.90;;;;;;6114412;23;19947;-74
2021/10/22 09:39:13;;;;;;;;;;;21.10;99.90;;;;;;6127888;23;20375;-75
2021/10/22 09:41:49;;;;;;;;;;;21.00;99.90;;;;;;6126791;23;19912;-74
2021/10/22 09:44:19;;;;;;;;;;;21.10;99.90;;;;;;6127275;23;19905;-74
2021/10/22 09:46:45;;;;;;;;;;;21.20;99.90;;;;;;6124577;23;20226;-74
2021/10/22 09:49:22;;;;;;;;;;;21.20;99.90;;;;;;6126235;23;19966;-76
2021/10/22 09:51:47;;;;;;;;;;;21.10;99.90;;;;;;6125933;23;19933;-74
2021/10/22 09:54:13;;;;;;;;;;;20.90;99.90;;;;;;6125463;23;19908;-77
2021/10/22 09:56:43;;;;;;;;;;;20.80;99.90;;;;;;6127041;23;19916;-74
2021/10/22 09:59:10;;;;;;;;;;;20.80;99.90;;;;;;6126560;23;19905;-74
2021/10/22 10:01:36;;;;;;;;;;;20.70;99.90;;;;;;6127893;23;19963;-74
2021/10/22 10:04:02;;;;;;;;;;;20.70;99.90;;;;;;6126482;23;19928;-75
2021/10/22 10:06:29;;;;;;;;;;;20.70;99.90;;;;;;6125522;23;19936;-76
2021/10/22 10:08:55;;;;;;;;;;;20.60;99.90;;;;;;6125419;23;19948;-74
2021/10/22 10:11:24;;;;;;;;;;;20.70;99.90;;;;;;6125331;23;19908;-74
2021/10/22 10:13:49;;;;;;;;;;;20.70;99.90;;;;;;6125470;23;19912;-73
2021/10/22 10:16:18;;;;;;;;;;;20.80;99.90;;;;;;6125544;23;19908;-73
2021/10/22 10:18:53;;;;;;;;;;;20.90;99.90;;;;;;6127448;23;19905;-74
2021/10/22 10:21:21;;;;;;;;;;;20.80;99.90;;;;;;6128328;23;19937;-74
2021/10/22 10:23:48;;;;;;;;;;;20.80;99.90;;;;;;6128377;23;19932;-74
2021/10/22 10:26:18;;;;;;;;;;;20.90;99.90;;;;;;6129354;23;19909;-73
2021/10/22 10:28:44;;;;;;;;;;;20.90;99.90;;;;;;6128196;23;19916;-74
2021/10/22 10:31:28;;;;;;;;;;;20.70;99.90;;;;;;6128509;23;19905;-74
2021/10/22 10:33:55;;;;;;;;;;;20.40;99.90;;;;;;6127867;23;19909;-73
2021/10/22 10:36:39;;;;;;;;;;;20.20;99.90;;;;;;6126560;23;20368;-73
2021/10/22 10:39:05;;;;;;;;;;;20.40;99.90;;;;;;6127042;23;19905;-74
2021/10/22 10:41:33;;;;;;;;;;;20.50;99.90;;;;;;6127811;23;20343;-72
2021/10/22 10:44:18;;;;;;;;;;;20.20;99.90;;;;;;6127873;23;19937;-74
2021/10/22 10:46:44;;;;;;;;;;;20.10;99.90;;;;;;6126693;23;19905;-73
2021/10/22 10:49:09;;;;;;;;;;;19.80;99.90;;;;;;6124598;23;20372;-73
2021/10/22 10:51:36;;;;;;;;;;;19.50;99.90;;;;;;6124220;23;19905;-74
2021/10/22 10:54:02;;;;;;;;;;;19.40;99.90;;;;;;6124189;23;19905;-74
2021/10/22 10:56:33;;;;;;;;;;;19.40;99.90;;;;;;6128787;23;19928;-74
2021/10/22 10:58:59;;;;;;;;;;;19.30;99.90;;;;;;6127108;23;19905;-75
2021/10/22 11:01:24;;;;;;;;;;;19.30;99.90;;;;;;6126797;23;19916;-74
2021/10/22 11:03:50;;;;;;;;;;;19.30;99.90;;;;;;6124524;23;19905;-75
2021/10/22 11:06:28;;;;;;;;;;;19.30;99.90;;;;;;6124288;23;19912;-75
2021/10/22 11:08:54;;;;;;;;;;;19.30;99.90;;;;;;6125506;23;19955;-73
2021/10/22 11:11:26;;;;;;;;;;;19.30;99.90;;;;;;6100203;23;19904;-75
2021/10/22 11:13:54;;;;;;;;;;;19.10;99.90;;;;;;6126951;23;19913;-73
2021/10/22 11:16:27;;;;;;;;;;;18.90;99.90;;;;;;6126236;23;20248;-75
2021/10/22 11:18:54;;;;;;;;;;;18.90;99.90;;;;;;6126343;23;19905;-74
2021/10/22 11:21:23;;;;;;;;;;;18.80;99.90;;;;;;6128073;23;19912;-74
2021/10/22 11:23:52;;;;;;;;;;;18.70;99.90;;;;;;6127226;23;20292;-74
2021/10/22 11:26:19;;;;;;;;;;;18.70;99.90;;;;;;6101141;23;19909;-74
2021/10/22 11:29:05;;;;;;;;;;;18.80;99.90;;;;;;6125881;23;19909;-74
2021/10/22 11:31:34;;;;;;;;;;;18.90;99.90;;;;;;6112375;23;19987;-74
2021/10/22 11:34:02;;;;;;;;;;;18.80;99.90;;;;;;6127036;23;19928;-73
2021/10/22 11:36:28;;;;;;;;;;;18.70;99.90;;;;;;6127481;23;19917;-74
2021/10/22 11:38:53;;;;;;;;;;;18.80;99.90;;;;;;6126986;23;19916;-73
2021/10/22 11:41:19;;;;;;;;;;;19.00;99.90;;;;;;6127245;23;19905;-74
2021/10/22 11:44:03;;;;;;;;;;;19.00;99.90;;;;;;6126942;23;20322;-76
2021/10/22 11:46:39;;;;;;;;;;;19.00;99.90;;;;;;6126486;23;19924;-74
2021/10/22 11:49:04;;;;;;;;;;;18.90;99.90;;;;;;6126639;23;19915;-74
2021/10/22 11:51:30;;;;;;;;;;;18.80;99.90;;;;;;6127113;23;19932;-74
2021/10/22 11:53:56;;;;;;;;;;;18.90;99.90;;;;;;6125444;23;19905;-75
2021/10/22 11:56:24;;;;;;;;;;;18.90;99.90;;;;;;6127028;23;19983;-74
2021/10/22 11:58:50;;;;;;;;;;;19.10;99.90;;;;;;6101243;23;19911;-75
2021/10/22 12:01:20;;;;;;;;;;;19.20;99.90;;;;;;6126560;23;19948;-74
2021/10/22 12:03:48;;;;;;;;;;;19.20;99.90;;;;;;6126588;23;20154;-77
2021/10/22 12:06:23;;;;;;;;;;;19.10;99.90;;;;;;6100894;23;19980;-75
2021/10/22 12:08:49;;;;;;;;;;;19.10;99.90;;;;;;6126930;23;19913;-73
2021/10/22 12:11:15;;;;;;;;;;;19.00;99.90;;;;;;6100650;23;19905;-73
2021/10/22 12:13:48;;;;;;;;;;;18.90;99.90;;;;;;6128743;23;19932;-74
2021/10/22 12:16:14;;;;;;;;;;;18.90;99.90;;;;;;6124710;23;19905;-77
2021/10/22 12:18:43;;;;;;;;;;;18.80;99.90;;;;;;6125640;23;19949;-77
2021/10/22 12:21:09;;;;;;;;;;;18.70;99.90;;;;;;6100510;23;19957;-74
2021/10/22 12:23:38;;;;;;;;;;;18.60;99.90;;;;;;6103046;23;19968;-76
2021/10/22 12:26:16;;;;;;;;;;;18.60;99.90;;;;;;6127557;23;19911;-75
2021/10/22 12:28:41;;;;;;;;;;;18.90;99.90;;;;;;6101162;23;19915;-74
2021/10/22 12:31:08;;;;;;;;;;;19.20;99.90;;;;;;6127812;23;19909;-78
2021/10/22 12:33:33;;;;;;;;;;;19.40;99.90;;;;;;6127601;23;19905;-74
2021/10/22 12:36:13;;;;;;;;;;;19.40;99.90;;;;;;6124648;23;19920;-78
2021/10/22 12:38:39;;;;;;;;;;;19.40;99.90;;;;;;6101314;23;19912;-73
2021/10/22 12:41:10;;;;;;;;;;;19.50;99.90;;;;;;6125109;23;19908;-75
2021/10/22 12:43:36;;;;;;;;;;;19.70;99.90;;;;;;6126567;23;19905;-75
2021/10/22 12:46:06;;;;;;;;;;;19.70;99.90;;;;;;6100550;23;19905;-74
2021/10/22 12:48:33;;;;;;;;;;;19.80;99.90;;;;;;6100910;23;20036;-76
2021/10/22 12:51:07;;;;;;;;;;;19.80;99.90;;;;;;6126083;23;20057;-74
2021/10/22 12:53:35;;;;;;;;;;;20.00;99.90;;;;;;6126293;23;19984;-74
2021/10/22 12:56:04;;;;;;;;;;;20.00;99.90;;;;;;6126888;23;19984;-75
2021/10/22 12:58:30;;;;;;;;;;;20.00;99.90;;;;;;6131332;23;19916;-74
2021/10/22 13:01:06;;;;;;;;;;;19.90;99.90;;;;;;6137058;23;19905;-75
2021/10/22 13:03:32;;;;;;;;;;;19.70;99.90;;;;;;6137116;23;19905;-75
2021/10/22 13:06:12;;;;;;;;;;;19.50;99.90;;;;;;6110135;23;20317;-75
2021/10/22 13:22:02;;;;;;;;;;;19.70;99.90;;;;;;6132844;23;19912;-74
2021/10/22 13:24:28;;;;;;;;;;;19.30;99.90;;;;;;6137515;23;19945;-75
2021/10/22 13:26:54;;;;;;;;;;;18.90;99.90;;;;;;6134449;23;19909;-76
2021/10/22 13:29:19;;;;;;;;;;;18.90;99.90;;;;;;6126072;23;19909;-74
2021/10/22 13:31:50;;;;;;;;;;;18.90;99.90;;;;;;6126331;23;19905;-75
2021/10/22 13:34:15;;;;;;;;;;;19.10;99.90;;;;;;6125995;23;19905;-74
2021/10/22 13:36:41;;;;;;;;;;;19.20;99.90;;;;;;6125898;23;19917;-74
2021/10/22 13:39:07;;;;;;;;;;;19.30;99.90;;;;;;6100149;23;20018;-74
2021/10/22 13:41:33;;;;;;;;;;;19.40;99.90;;;;;;6124226;23;20270;-74
2021/10/22 13:43:59;;;;;;;;;;;19.40;99.90;;;;;;6124566;23;19911;-74
2021/10/22 13:46:24;;;;;;;;;;;19.20;99.90;;;;;;6126388;23;20297;-73
2021/10/22 13:48:50;;;;;;;;;;;19.10;99.90;;;;;;6125199;23;20292;-73
2021/10/22 13:51:16;;;;;;;;;;;19.00;99.90;;;;;;6126136;23;20257;-73
2021/10/22 13:53:44;;;;;;;;;;;18.90;99.90;;;;;;6125754;23;19904;-75
2021/10/22 13:56:11;;;;;;;;;;;18.80;99.90;;;;;;6125598;23;19915;-75
2021/10/22 13:58:37;;;;;;;;;;;18.80;99.90;;;;;;6126078;23;19911;-75
2021/10/22 14:01:08;;;;;;;;;;;18.70;99.90;;;;;;6123125;23;20437;-74
2021/10/22 14:03:34;;;;;;;;;;;18.70;99.90;;;;;;6123666;23;19905;-76
2021/10/22 14:06:02;;;;;;;;;;;18.60;99.90;;;;;;6099654;23;19927;-73
2021/10/22 14:08:34;;;;;;;;;;;18.40;99.90;;;;;;6125646;23;19917;-73
2021/10/22 14:11:12;;;;;;;;;;;18.20;99.90;;;;;;6126116;23;19955;-73
2021/10/22 14:13:46;;;;;;;;;;;18.20;99.90;;;;;;6125281;23;19905;-74
2021/10/22 14:19:19;;;;;;;;;;;17.90;99.90;;;;;;6133032;23;20337;-74
2021/10/22 14:29:49;;;;;;;;;;;17.70;99.90;;;;;;6124634;23;19915;-73
2021/10/22 14:32:15;;;;;;;;;;;17.80;99.90;;;;;;6126274;23;19912;-73
2021/10/22 14:34:41;;;;;;;;;;;17.80;99.90;;;;;;6128217;23;19905;-74
2021/10/22 14:37:06;;;;;;;;;;;17.80;99.90;;;;;;6128300;23;20004;-73
2021/10/22 14:39:32;;;;;;;;;;;17.80;99.90;;;;;;6126148;23;19911;-73
2021/10/22 14:42:01;;;;;;;;;;;17.90;99.90;;;;;;6128971;23;20330;-74
2021/10/22 14:44:31;;;;;;;;;;;18.00;99.90;;;;;;6127235;23;19905;-74